• Join FlightAware (Why Join?)
  • Login
  • US Flag 
11:35PM EDT


 

Airport Tracker/Info


-or-


 

Live Flight TrackerFlight Track Log ✈ DAL3678 ✈ 09-Apr-2013 ✈ KMKE - KDTW

Flight Track Log - Related Links

Times and Time Zones

All times are in EDT time to prevent confusion due to time zone crossing. See the DAL3678 flight status page for this flight to view local times or setup timezone preferences in your user account.

Time Position Orientation Groundspeed Altitude Reporting Facility
EDT Latitude Longitude Course Direction KTS MPH feet Rate Location/Type
07:08PM 42.9500 -87.9000 293° West 136 157 1,700  Level KMKE
07:11PM 42.9956 -88.0486 293° West 230 265 5,100 1,740 Climbing Chicago Center
07:12PM 42.9461 -88.1111 223° Southwest 242 278 7,700 2,340 Climbing Chicago Center
07:13PM 42.8722 -88.1164 183° South 271 312 10,000 2,400 Climbing Chicago Center
07:14PM 42.7789 -88.1111 178° South 286 329 12,700 2,280 Climbing Chicago Center
07:15PM 42.6953 -88.1047 177° South 298 343 14,700 1,800 Climbing Chicago Center
07:16PM 42.6067 -88.0986 177° South 316 364 16,500 1,560 Climbing Chicago Center
07:17PM 42.5142 -88.0814 172° South 336 387 18,000 1,140 Climbing Chicago Center
07:18PM 42.4344 -87.9875 139° Southeast 379 436 18,900 960 Climbing Chicago Center
07:19PM 42.3500 -87.8911 140° Southeast 394 453 20,000 960 Climbing Chicago Center
07:20PM 42.2561 -87.7819 139° Southeast 405 466 21,000 480 Climbing Chicago Center
07:21PM 42.1656 -87.6767 139° Southeast 425 489 21,000  Level Chicago Center
07:22PM 42.0711 -87.5675 139° Southeast 444 511 21,000  Level Chicago Center
07:23PM 41.9872 -87.4386 131° Southeast 467 537 21,000  Level Chicago Center
07:24PM 41.9764 -87.2600 95° East 481 554 21,000  Level Chicago Center
07:25PM 41.9725 -87.0422 91° East 487 560 21,000  Level Chicago Center
07:26PM 41.9694 -86.8628 91° East 483 556 21,000  Level Chicago Center
07:27PM 41.9667 -86.6961 91° East 454 522 21,000  Level Chicago Center
07:28PM 41.9622 -86.5169 92° East 443 510 21,000  Level Chicago Center
07:29PM 41.9597 -86.3528 91° East 440 506 21,000  Level Chicago Center
07:30PM 41.9572 -86.1883 91° East 440 506 21,000  Level Chicago Center
07:31PM 41.9711 -86.0242 83° East 441 507 21,000  Level Chicago Center
07:32PM 41.9839 -85.8572 84° East 447 514 21,000  Level Chicago Center
07:33PM 41.9978 -85.6906 84° East 447 514 21,000  Level Chicago Center
07:34PM 42.0106 -85.5067 85° East 448 516 21,000 -540 Level Chicago Center
07:35PM 42.0217 -85.3419 85° East 444 511 20,000 -1,020 Descending Chicago Center
07:36PM 42.0317 -85.2550 81° East 446 513 19,500 -660 Descending Cleveland Center
07:37PM 42.0433 -85.0658 85° East 446 513 19,000 -300 Descending Cleveland Center
07:38PM 42.0586 -84.8822 84° East 462 532 19,000  Level Cleveland Center
07:39PM 42.0214 -84.7064 106° East 481 554 19,000 -900 Level Cleveland Center
07:40PM 41.9731 -84.5411 111° Southeast 474 545 17,300 -1,800 Descending Cleveland Center
07:41PM 41.9283 -84.3819 111° Southeast 474 545 15,400 -1,980 Descending Cleveland Center
07:41PM 41.9111 -84.3336 116° Southeast 430 495 14,700 -1,920 Descending Cleveland Center
07:41PM 41.8981 -84.2908 112° Southeast 409 471 14,200 -1,200 Descending Cleveland Center
07:42PM 41.8847 -84.2511 114° Southeast 451 519 13,900 -1,380 Descending Cleveland Center
07:43PM 41.8586 -84.1492 109° East 367 422 12,800 -1,320 Descending Cleveland Center
07:43PM 41.8469 -84.1233 121° Southeast 409 471 12,600 -840 Descending Cleveland Center
07:44PM 41.8417 -84.0256 94° East 342 394 12,000 -600 Descending Cleveland Center
07:44PM 41.8422 -84.0033 88° East 347 399 12,000 -1,320 Level Cleveland Center
07:45PM 41.8761 -83.9131 63° Northeast 334 384 10,700 -1,500 Descending Cleveland Center
07:45PM 41.8789 -83.8881 82° East 325 374 10,500 -1,800 Descending Cleveland Center
07:46PM 41.9067 -83.7947 68° East 330 380 8,900 -1,980 Descending Cleveland Center
07:46PM 41.9114 -83.7725 74° East 320 368 8,600 -2,040 Descending Cleveland Center
07:46PM 41.9344 -83.6956 68° East 317 365 7,100 -2,220 Descending Cleveland Center
07:47PM 41.9461 -83.6514 70° East 320 368 6,400 -1,920 Descending Cleveland Center
07:47PM 41.9686 -83.5828 66° East 308 354 5,200 -1,440 Descending Cleveland Center
07:48PM 41.9861 -83.5528 52° Northeast 313 360 5,000 -600 Descending Cleveland Center
07:48PM 42.0289 -83.5100 37° Northeast 277 319 4,600 -1,020 Descending Cleveland Center
07:49PM 42.0522 -83.4972 22° Northeast 289 333 4,000 -1,500 Descending Cleveland Center
07:50PM 42.0947 -83.4656 29° Northeast 240 276 3,100 -1,320 Descending Cleveland Center
07:50PM 42.1097 -83.4494 39° Northeast 259 298 2,700 -1,080 Descending Cleveland Center
07:50PM 42.1397 -83.4303 25° Northeast 173 199 2,100 -900 Descending FAA TRACON SMA TRACON (SMA)
07:51PM 42.1514 -83.4219 28° Northeast 155 178 1,900 -780 Descending FAA TRACON SMA TRACON (SMA)
07:51PM 42.1642 -83.4122 29° Northeast 141 162 1,600 -900 Descending FAA TRACON SMA TRACON (SMA)
07:51PM 42.1742 -83.4039 32° Northeast 129 148 1,300 -780 Descending FAA TRACON SMA TRACON (SMA)
07:52PM 42.1844 -83.3972 26° Northeast 127 146 1,100 -600 Descending FAA TRACON SMA TRACON (SMA)
07:52PM 42.1956 -83.3889 29° Northeast 129 148 900 -660 Descending FAA TRACON SMA TRACON (SMA)
07:52PM 42.2069 -83.3806 28° Northeast 127 146 700 -300 Descending FAA TRACON SMA TRACON (SMA)
07:53PM 42.2131 -83.3761 28° Northeast 72 83 700  Level FAA TRACON SMA TRACON (SMA)
07:53PM 42.2156 -83.3742 30° Northeast 64 74 700  Level FAA TRACON SMA TRACON (SMA)
07:53PM 42.2156 -83.3742 151° Southeast 64 74 700  Level FAA TRACON SMA TRACON (SMA)
07:55PM 42.2124 -83.3534 90° East  Level Estimated
08:02PM 42.2124 -83.3534 90° East  Level Estimated